createdAt,value
2019-05-19T00:01:59.459Z,75.42
2019-05-19T00:04:29.391Z,74.91
2019-05-19T00:06:59.335Z,74.77
2019-05-19T00:12:08.609Z,75.10
2019-05-19T00:14:38.863Z,74.80
2019-05-19T00:17:08.828Z,75.21
2019-05-19T00:19:39.116Z,75.48
2019-05-19T00:22:09.325Z,76.49
2019-05-19T00:24:39.546Z,76.21
2019-05-19T00:29:48.805Z,75.87
2019-05-19T00:34:58.652Z,75.06
2019-05-19T00:37:28.590Z,75.06
2019-05-19T00:39:58.509Z,75.45
2019-05-19T00:42:28.803Z,75.52
2019-05-19T00:44:58.741Z,75.40
2019-05-19T00:47:28.680Z,76.16
2019-05-19T00:49:58.957Z,76.58
2019-05-19T00:52:29.167Z,76.26
2019-05-19T00:54:59.121Z,76.03
2019-05-19T00:57:29.405Z,75.59
2019-05-19T00:59:59.320Z,75.42
2019-05-19T01:05:08.884Z,75.45
2019-05-19T01:07:39.107Z,75.68
2019-05-19T01:10:09.353Z,76.88
2019-05-19T01:12:39.287Z,77.25
2019-05-19T01:15:09.559Z,77.21
2019-05-19T01:17:39.527Z,77.25
2019-05-19T01:20:09.817Z,77.35
2019-05-19T01:22:39.732Z,76.89
2019-05-19T01:27:49.356Z,76.42
2019-05-19T01:30:19.544Z,76.78
2019-05-19T01:32:49.488Z,76.93
2019-05-19T01:35:19.726Z,77.28
2019-05-19T01:37:49.939Z,77.25
2019-05-19T01:40:20.153Z,77.00
2019-05-19T01:45:29.426Z,76.47
2019-05-19T01:50:38.710Z,77.40
2019-05-19T01:55:48.512Z,76.88
2019-05-19T01:58:18.453Z,77.03
2019-05-19T02:00:48.397Z,77.14
2019-05-19T02:03:18.670Z,76.90
2019-05-19T02:08:28.226Z,79.02
2019-05-19T02:10:58.159Z,78.48
2019-05-19T02:13:28.109Z,78.23
2019-05-19T02:18:37.709Z,77.39
2019-05-19T02:21:07.644Z,77.17
2019-05-19T02:23:37.588Z,77.45
2019-05-19T02:26:07.523Z,77.64
2019-05-19T02:28:37.489Z,77.36
2019-05-19T02:33:46.744Z,77.20
2019-05-19T02:36:17.036Z,77.62
2019-05-19T02:46:45.369Z,77.71
2019-05-19T02:49:15.669Z,77.33
2019-05-19T02:51:46.001Z,77.65
2019-05-19T02:54:15.934Z,77.89
2019-05-19T02:56:45.859Z,77.36
2019-05-19T02:59:15.795Z,77.19
2019-05-19T03:01:45.727Z,77.03
2019-05-19T03:04:15.978Z,76.94
2019-05-19T03:06:45.894Z,77.40
2019-05-19T03:11:55.274Z,78.26
2019-05-19T03:17:04.485Z,77.76
2019-05-19T03:24:53.094Z,77.43
2019-05-19T03:27:23.389Z,77.87
2019-05-19T03:29:53.355Z,78.20
2019-05-19T03:32:23.304Z,78.03
2019-05-19T03:34:53.261Z,78.10
2019-05-19T03:37:23.538Z,78.02
2019-05-19T03:39:53.489Z,78.04
2019-05-19T03:42:23.692Z,78.20
2019-05-19T03:47:33.281Z,78.21
2019-05-19T03:50:03.213Z,78.41
2019-05-19T03:52:33.155Z,78.67
2019-05-19T03:55:03.379Z,78.42
2019-05-19T04:00:12.953Z,78.43
2019-05-19T04:02:42.872Z,78.98
2019-05-19T04:05:12.809Z,78.58
2019-05-19T04:10:22.446Z,79.09
2019-05-19T04:12:52.671Z,79.26
2019-05-19T04:15:22.608Z,79.69
2019-05-19T04:17:52.880Z,79.15
2019-05-19T04:23:02.169Z,78.73
2019-05-19T04:25:32.455Z,78.76
2019-05-19T04:28:02.388Z,78.65
2019-05-19T04:33:11.944Z,79.25
2019-05-19T04:38:21.467Z,77.71
2019-05-19T04:40:51.405Z,77.37
2019-05-19T04:46:01.253Z,76.71
2019-05-19T04:48:31.184Z,76.17
2019-05-19T04:51:01.133Z,76.05
2019-05-19T04:53:31.076Z,76.14
2019-05-19T04:58:40.337Z,76.20
2019-05-19T05:01:10.309Z,76.43
2019-05-19T05:03:40.252Z,76.12
2019-05-19T05:06:10.184Z,75.00
2019-05-19T05:11:19.457Z,75.41
2019-05-19T05:13:49.387Z,75.35
2019-05-19T05:16:19.323Z,75.68
2019-05-19T05:18:49.579Z,75.95
2019-05-19T05:23:59.188Z,77.33
2019-05-19T05:26:29.135Z,76.05
2019-05-19T05:28:59.088Z,76.19
2019-05-19T05:31:29.011Z,75.73
2019-05-19T05:36:38.270Z,77.97
2019-05-19T05:39:08.199Z,77.85
2019-05-19T05:41:38.148Z,77.67
2019-05-19T05:46:47.426Z,76.12
2019-05-19T05:49:17.401Z,76.21
2019-05-19T05:51:47.365Z,75.51
2019-05-19T05:54:17.288Z,75.44
2019-05-19T05:56:47.238Z,75.77
2019-05-19T06:01:56.557Z,76.15
2019-05-19T06:04:26.495Z,75.64
2019-05-19T06:06:56.446Z,75.03
2019-05-19T06:09:26.382Z,74.47
2019-05-19T06:14:36.027Z,74.09
2019-05-19T06:19:45.660Z,72.80
2019-05-19T06:27:37.107Z,72.13
2019-05-19T06:30:08.763Z,71.35
2019-05-19T06:35:16.603Z,70.05
2019-05-19T06:37:46.893Z,68.64
2019-05-19T06:40:16.845Z,68.71
2019-05-19T06:42:46.791Z,68.29
2019-05-19T06:45:16.733Z,67.25
2019-05-19T06:50:26.044Z,67.83
2019-05-19T06:53:12.702Z,67.82
2019-05-19T06:55:26.304Z,66.59
2019-05-19T06:57:56.225Z,66.55
2019-05-19T07:03:05.509Z,66.92
2019-05-19T07:05:35.455Z,67.16
2019-05-19T07:08:05.401Z,67.12
2019-05-19T07:10:35.361Z,66.71
2019-05-19T07:18:24.716Z,65.80
2019-05-19T07:20:54.952Z,66.03
2019-05-19T07:23:28.128Z,66.36
2019-05-19T07:25:55.337Z,65.73
2019-05-19T07:33:43.951Z,64.73
2019-05-19T07:36:13.914Z,64.33
2019-05-19T07:38:43.871Z,64.42
2019-05-19T07:41:13.772Z,65.52
2019-05-19T07:46:23.364Z,61.15
2019-05-19T07:48:53.305Z,62.64
2019-05-19T07:51:23.253Z,63.30
2019-05-19T07:59:12.202Z,62.10
2019-05-19T08:01:42.147Z,61.39
2019-05-19T08:04:12.083Z,61.43
2019-05-19T08:09:21.785Z,61.23
2019-05-19T08:11:51.732Z,62.48
2019-05-19T08:14:21.678Z,61.68
2019-05-19T08:16:51.693Z,61.86
2019-05-19T08:19:21.651Z,62.88
2019-05-19T08:21:51.622Z,61.45
2019-05-19T08:24:21.604Z,63.46
2019-05-19T08:26:51.885Z,61.05
2019-05-19T08:29:22.098Z,60.36
2019-05-19T08:31:52.113Z,61.24
2019-05-19T08:34:22.066Z,61.48
2019-05-19T08:36:52.028Z,61.98
2019-05-19T08:42:01.312Z,61.87
2019-05-19T08:47:10.603Z,59.81
2019-05-19T08:49:40.537Z,58.75
2019-05-19T08:52:10.490Z,59.77
2019-05-19T08:57:19.789Z,59.91
2019-05-19T08:59:49.732Z,59.84
2019-05-19T09:04:59.287Z,58.87
2019-05-19T09:10:09.142Z,58.81
2019-05-19T09:12:39.100Z,58.93
2019-05-19T09:15:09.044Z,58.63
2019-05-19T09:17:38.999Z,59.48
2019-05-19T09:20:08.949Z,59.05
2019-05-19T09:22:38.896Z,59.31
2019-05-19T09:25:09.132Z,58.43
2019-05-19T09:27:39.168Z,58.71
2019-05-19T09:30:09.081Z,59.07
2019-05-19T09:35:18.363Z,60.10
2019-05-19T09:37:48.314Z,60.26
2019-05-19T09:40:18.259Z,59.28
2019-05-19T09:42:48.224Z,57.55
2019-05-19T09:45:18.465Z,59.33
2019-05-19T09:50:28.140Z,58.16
2019-05-19T09:55:37.783Z,56.06
2019-05-19T10:00:47.451Z,58.54
2019-05-19T10:03:19.635Z,57.01
2019-05-19T10:05:47.329Z,56.63
2019-05-19T10:08:17.278Z,55.94
2019-05-19T10:13:38.680Z,55.01
2019-05-19T10:16:08.614Z,54.21
2019-05-19T10:18:38.564Z,53.57
2019-05-19T10:23:48.210Z,55.36
2019-05-19T10:26:18.195Z,54.65
2019-05-19T10:28:48.436Z,54.89
2019-05-19T10:31:18.371Z,55.69
2019-05-19T10:33:48.749Z,54.38
2019-05-19T10:36:18.883Z,53.81
2019-05-19T10:38:48.853Z,53.81
2019-05-19T10:41:18.784Z,54.24
2019-05-19T10:43:49.044Z,55.18
2019-05-19T10:46:19.000Z,53.40
2019-05-19T10:51:28.859Z,54.08
2019-05-19T10:53:58.810Z,54.50
2019-05-19T10:56:28.760Z,52.72
2019-05-19T11:01:38.039Z,54.17
2019-05-19T11:04:08.321Z,52.55
2019-05-19T11:06:38.536Z,53.96
2019-05-19T11:09:08.490Z,53.89
2019-05-19T11:14:17.761Z,53.90
2019-05-19T11:16:47.698Z,52.06
2019-05-19T11:19:17.659Z,52.05
2019-05-19T11:21:47.596Z,52.89
2019-05-19T11:26:56.884Z,52.79
2019-05-19T11:29:26.825Z,51.69
2019-05-19T11:34:37.137Z,49.24
2019-05-19T11:37:07.517Z,50.30
2019-05-19T11:39:37.035Z,49.51
2019-05-19T11:42:07.340Z,50.67
2019-05-19T11:44:37.566Z,48.97
2019-05-19T11:47:07.776Z,49.15
2019-05-19T11:49:37.724Z,49.89
2019-05-19T11:52:08.014Z,49.46
2019-05-19T11:54:37.968Z,47.92
2019-05-19T11:57:07.905Z,47.51
2019-05-19T11:59:37.855Z,47.87
2019-05-19T12:02:08.220Z,49.17
2019-05-19T12:04:38.027Z,47.92
2019-05-19T12:07:07.948Z,47.35
2019-05-19T12:09:37.891Z,46.79
2019-05-19T12:12:08.138Z,47.76
2019-05-19T12:14:38.091Z,46.34
2019-05-19T12:17:08.258Z,45.15
2019-05-19T12:19:38.024Z,45.46
2019-05-19T12:24:47.572Z,44.28
2019-05-19T12:27:17.506Z,44.73
2019-05-19T12:29:47.461Z,45.88
2019-05-19T12:34:56.753Z,47.36
2019-05-19T12:37:26.705Z,46.30
2019-05-19T12:39:56.667Z,46.71
2019-05-19T12:42:26.609Z,45.70
2019-05-19T12:44:56.668Z,46.35
2019-05-19T12:47:26.486Z,45.99
2019-05-19T12:49:56.806Z,44.36
2019-05-19T12:55:06.498Z,45.08
2019-05-19T12:57:36.809Z,45.09
2019-05-19T13:00:06.735Z,45.85
2019-05-19T13:02:38.190Z,45.03
2019-05-19T13:07:47.057Z,44.60
2019-05-19T13:10:17.340Z,43.72
2019-05-19T13:12:46.950Z,43.87
2019-05-19T13:15:17.232Z,44.52
2019-05-19T13:20:26.534Z,44.12
2019-05-19T13:22:56.464Z,43.50
2019-05-19T13:25:26.449Z,40.70
2019-05-19T13:27:56.628Z,41.58
2019-05-19T13:30:26.642Z,42.26
2019-05-19T13:32:56.499Z,41.63
2019-05-19T13:35:26.828Z,42.76
2019-05-19T13:37:56.713Z,42.73
2019-05-19T13:40:26.641Z,42.99
2019-05-19T13:45:35.931Z,43.88
2019-05-19T13:48:05.863Z,45.00
2019-05-19T13:53:15.128Z,44.61
2019-05-19T13:58:24.412Z,45.17
2019-05-19T14:00:54.688Z,44.97
2019-05-19T14:03:24.609Z,46.95
2019-05-19T14:05:54.939Z,45.26
2019-05-19T14:11:04.583Z,46.09
2019-05-19T14:13:34.550Z,44.94
2019-05-19T14:16:04.876Z,45.19
2019-05-19T14:21:14.244Z,45.79
2019-05-19T14:23:44.451Z,46.17
2019-05-19T14:26:14.394Z,47.49
2019-05-19T14:28:44.624Z,49.42
2019-05-19T14:31:14.604Z,52.12
2019-05-19T14:36:24.197Z,55.63
2019-05-19T14:38:54.129Z,55.85
2019-05-19T14:41:33.238Z,56.00
2019-05-19T14:43:54.261Z,56.57
2019-05-19T14:46:24.214Z,55.91
2019-05-19T14:48:54.470Z,55.07
2019-05-19T14:51:24.445Z,54.87
2019-05-19T14:53:54.721Z,55.33
2019-05-19T14:56:24.945Z,55.40
2019-05-19T14:58:54.923Z,55.95
2019-05-19T15:01:25.024Z,56.19
2019-05-19T15:03:55.298Z,55.68
2019-05-19T15:06:25.249Z,55.87
2019-05-19T15:08:55.189Z,56.79
2019-05-19T15:11:25.141Z,56.79
2019-05-19T15:13:55.189Z,56.55
2019-05-19T15:16:25.103Z,57.60
2019-05-19T15:18:55.379Z,58.50
2019-05-19T15:21:25.336Z,58.42
2019-05-19T15:23:55.533Z,58.66
2019-05-19T15:26:25.727Z,58.61
2019-05-19T15:28:55.671Z,58.28
2019-05-19T15:31:25.603Z,58.28
2019-05-19T15:36:35.198Z,59.34
2019-05-19T15:39:05.168Z,59.53
2019-05-19T15:41:35.208Z,59.47
2019-05-19T15:44:05.059Z,59.40
2019-05-19T15:46:35.298Z,59.88
2019-05-19T15:49:05.785Z,59.75
2019-05-19T15:51:37.719Z,58.87
2019-05-19T15:54:05.980Z,59.03
2019-05-19T15:56:36.266Z,59.44
2019-05-19T15:59:06.222Z,59.82
2019-05-19T16:01:36.171Z,58.63
2019-05-19T16:04:06.412Z,58.73
2019-05-19T16:06:39.021Z,59.36
2019-05-19T16:09:06.333Z,60.10
2019-05-19T16:11:36.291Z,59.59
2019-05-19T16:14:06.245Z,59.59
2019-05-19T16:16:36.174Z,59.17
2019-05-19T16:19:06.438Z,59.23
2019-05-19T16:21:36.358Z,60.22
2019-05-19T16:24:08.130Z,60.43
2019-05-19T16:26:38.065Z,63.28
2019-05-19T16:29:08.289Z,64.73
2019-05-19T16:31:38.562Z,64.22
2019-05-19T16:34:08.868Z,64.58
2019-05-19T16:36:38.781Z,64.81
2019-05-19T16:39:08.719Z,64.66
2019-05-19T16:41:38.695Z,64.77
2019-05-19T16:44:09.226Z,64.67
2019-05-19T16:46:39.155Z,64.45
2019-05-19T16:49:09.117Z,63.41
2019-05-19T16:51:39.062Z,63.54
2019-05-19T16:54:09.290Z,63.40
2019-05-19T16:56:39.220Z,62.83
2019-05-19T16:59:09.175Z,62.81
2019-05-19T17:01:39.101Z,63.34
2019-05-19T17:04:09.040Z,62.55
2019-05-19T17:06:38.966Z,63.41
2019-05-19T17:11:48.237Z,63.77
2019-05-19T17:14:18.198Z,63.68
2019-05-19T17:16:48.106Z,63.00
2019-05-19T17:19:18.064Z,63.70
2019-05-19T17:21:48.182Z,65.41
2019-05-19T17:24:18.104Z,65.96
2019-05-19T17:26:48.033Z,67.49
2019-05-19T17:29:18.323Z,65.05
2019-05-19T17:31:48.252Z,65.03
2019-05-19T17:34:18.280Z,65.90
2019-05-19T17:36:48.174Z,65.17
2019-05-19T17:39:18.097Z,65.13
2019-05-19T17:41:48.019Z,63.45
2019-05-19T17:44:17.959Z,62.98
2019-05-19T17:46:48.222Z,62.87
2019-05-19T17:49:18.173Z,62.74
2019-05-19T17:51:48.110Z,62.91
2019-05-19T17:56:57.639Z,62.96
2019-05-19T17:59:27.844Z,61.99
2019-05-19T18:01:57.774Z,62.62
2019-05-19T18:04:27.726Z,62.78
2019-05-19T18:06:57.717Z,62.07
2019-05-19T18:09:27.999Z,61.93
2019-05-19T18:11:57.958Z,62.33
2019-05-19T18:14:27.880Z,62.10
2019-05-19T18:16:58.138Z,61.48
2019-05-19T18:19:28.138Z,61.78
2019-05-19T18:24:37.362Z,61.82
2019-05-19T18:27:07.301Z,61.78
2019-05-19T18:29:37.800Z,61.44
2019-05-19T18:32:07.726Z,62.58
2019-05-19T18:34:37.990Z,63.32
2019-05-19T18:37:07.914Z,64.49
2019-05-19T18:39:37.849Z,64.23
2019-05-19T18:42:07.782Z,64.34
2019-05-19T18:44:37.717Z,64.19
2019-05-19T18:47:07.951Z,63.28
2019-05-19T18:49:37.946Z,64.11
2019-05-19T18:54:47.199Z,64.38
2019-05-19T18:57:17.150Z,65.05
2019-05-19T18:59:47.938Z,65.36
2019-05-19T19:02:17.020Z,65.19
2019-05-19T19:04:46.972Z,65.44
2019-05-19T19:07:16.878Z,65.69
2019-05-19T19:09:46.823Z,66.15
2019-05-19T19:12:16.751Z,66.53
2019-05-19T19:14:47.045Z,66.83
2019-05-19T19:17:16.988Z,66.78
2019-05-19T19:19:46.920Z,66.41
2019-05-19T19:22:16.836Z,66.55
2019-05-19T19:24:46.776Z,66.36
2019-05-19T19:27:16.706Z,67.24
2019-05-19T19:30:01.927Z,67.56
2019-05-19T19:34:56.473Z,67.66
2019-05-19T19:37:26.412Z,67.95
2019-05-19T19:42:35.693Z,64.24
2019-05-19T19:45:05.626Z,62.26
2019-05-19T19:47:35.558Z,63.12
2019-05-19T19:50:08.491Z,63.38
2019-05-19T19:55:17.774Z,64.26
2019-05-19T19:57:47.702Z,65.07
2019-05-19T20:03:02.526Z,65.00
2019-05-19T20:05:32.484Z,64.70
2019-05-19T20:08:02.734Z,64.46
2019-05-19T20:10:32.681Z,65.05
2019-05-19T20:13:02.611Z,65.45
2019-05-19T20:15:32.921Z,65.69
2019-05-19T20:18:03.053Z,66.96
2019-05-19T20:20:32.995Z,67.49
2019-05-19T20:23:03.266Z,67.79
2019-05-19T20:28:12.522Z,66.11
2019-05-19T20:33:21.827Z,65.30
2019-05-19T20:35:51.770Z,66.00
2019-05-19T20:38:21.698Z,67.40
2019-05-19T20:40:51.655Z,66.99
2019-05-19T20:43:21.691Z,66.02
2019-05-19T20:45:51.619Z,65.88
2019-05-19T20:51:01.175Z,66.19
2019-05-19T20:53:31.108Z,67.36
2019-05-19T20:56:01.127Z,68.51
2019-05-19T20:58:31.072Z,69.19
2019-05-19T21:01:01.315Z,69.29
2019-05-19T21:03:31.226Z,69.67
2019-05-19T21:08:40.883Z,69.36
2019-05-19T21:11:10.836Z,69.17
2019-05-19T21:13:40.765Z,69.00
2019-05-19T21:16:10.707Z,69.80
2019-05-19T21:18:40.677Z,69.23
2019-05-19T21:21:10.984Z,68.16
2019-05-19T21:23:40.907Z,68.58
2019-05-19T21:26:11.200Z,68.54
2019-05-19T21:28:41.419Z,68.74
2019-05-19T21:31:11.356Z,68.88
2019-05-19T21:33:41.290Z,69.45
2019-05-19T21:36:11.220Z,70.28
2019-05-19T21:41:20.614Z,70.44
2019-05-19T21:46:29.925Z,71.97
2019-05-19T21:51:39.202Z,73.24
2019-05-19T21:54:09.478Z,73.22
2019-05-19T21:56:39.413Z,73.33
2019-05-19T21:59:09.351Z,74.20
2019-05-19T22:01:39.294Z,74.77
2019-05-19T22:04:09.216Z,75.46
2019-05-19T22:06:39.506Z,74.93
2019-05-19T22:11:48.800Z,74.68
2019-05-19T22:14:18.730Z,75.23
2019-05-19T22:16:48.680Z,75.87
2019-05-19T22:21:57.945Z,75.68
2019-05-19T22:24:28.177Z,75.75
2019-05-19T22:26:58.129Z,76.08
2019-05-19T22:32:07.378Z,76.59
2019-05-19T22:34:37.315Z,76.13
2019-05-19T22:37:07.258Z,76.18
2019-05-19T22:39:37.197Z,75.56
2019-05-19T22:42:07.130Z,75.40
2019-05-19T22:44:37.050Z,75.46
2019-05-19T22:47:06.998Z,75.43
2019-05-19T22:49:37.224Z,75.10
2019-05-19T22:52:07.174Z,74.06
2019-05-19T22:54:37.123Z,72.79
2019-05-19T22:57:07.054Z,73.50
2019-05-19T22:59:37.282Z,74.01
2019-05-19T23:02:09.242Z,73.94
2019-05-19T23:04:37.515Z,74.03
2019-05-19T23:07:07.441Z,74.01
2019-05-19T23:09:37.385Z,74.20
2019-05-19T23:14:47.008Z,76.65
2019-05-19T23:17:16.962Z,76.41
2019-05-19T23:19:46.903Z,76.73
2019-05-19T23:24:56.161Z,75.46
2019-05-19T23:27:26.105Z,75.77
2019-05-19T23:29:56.046Z,75.46
2019-05-19T23:35:08.152Z,75.86
2019-05-19T23:37:38.125Z,75.82
2019-05-19T23:40:08.054Z,75.98
2019-05-19T23:45:17.618Z,76.53
2019-05-19T23:47:47.537Z,76.18
2019-05-19T23:50:17.518Z,76.32
2019-05-19T23:55:26.799Z,76.58
2019-05-19T23:57:56.720Z,77.07
